createdAt,value
2019-04-20T00:01:33.600Z,45.30
2019-04-20T00:04:03.157Z,45.40
2019-04-20T00:06:41.683Z,45.40
2019-04-20T00:09:14.092Z,45.50
2019-04-20T00:11:49.309Z,45.50
2019-04-20T00:14:18.952Z,45.50
2019-04-20T00:16:46.109Z,46.20
2019-04-20T00:19:24.272Z,45.70
2019-04-20T00:21:58.568Z,45.70
2019-04-20T00:24:39.299Z,45.90
2019-04-20T00:27:32.823Z,46.00
2019-04-20T00:30:00.135Z,46.00
2019-04-20T00:32:29.516Z,46.10
2019-04-20T00:34:50.375Z,46.20
2019-04-20T00:37:21.184Z,46.20
2019-04-20T00:39:53.040Z,46.20
2019-04-20T00:42:33.126Z,46.30
2019-04-20T00:45:05.861Z,46.40
2019-04-20T00:47:37.340Z,46.50
2019-04-20T00:50:23.147Z,46.50
2019-04-20T00:52:50.898Z,46.60
2019-04-20T00:55:06.380Z,46.70
2019-04-20T00:57:46.385Z,46.70
2019-04-20T01:00:26.848Z,46.80
2019-04-20T01:02:54.135Z,46.90
2019-04-20T01:05:46.420Z,47.00
2019-04-20T01:08:25.401Z,47.00
2019-04-20T01:10:58.251Z,47.00
2019-04-20T01:13:30.058Z,46.90
2019-04-20T01:16:06.318Z,47.00
2019-04-20T01:18:32.901Z,47.10
2019-04-20T01:21:06.553Z,47.10
2019-04-20T01:23:43.804Z,47.10
2019-04-20T01:26:12.981Z,47.50
2019-04-20T01:28:54.262Z,47.30
2019-04-20T01:31:22.111Z,47.30
2019-04-20T01:33:57.763Z,47.50
2019-04-20T01:36:37.052Z,47.70
2019-04-20T01:39:05.048Z,47.60
2019-04-20T01:41:22.406Z,47.60
2019-04-20T01:43:54.371Z,47.70
2019-04-20T01:46:28.038Z,47.70
2019-04-20T01:49:00.189Z,47.70
2019-04-20T01:51:39.071Z,47.80
2019-04-20T01:54:22.018Z,47.90
2019-04-20T01:56:53.645Z,47.90
2019-04-20T01:59:37.095Z,47.90
2019-04-20T02:02:29.467Z,48.00
2019-04-20T02:05:11.471Z,47.90
2019-04-20T02:07:41.634Z,48.30
2019-04-20T02:10:11.721Z,47.90
2019-04-20T02:12:42.545Z,47.90
2019-04-20T02:15:23.214Z,48.00
2019-04-20T02:18:20.580Z,48.10
2019-04-20T02:21:06.489Z,48.30
2019-04-20T02:23:49.925Z,48.20
2019-04-20T02:26:36.666Z,48.90
2019-04-20T02:29:59.856Z,48.30
2019-04-20T02:32:22.749Z,48.30
2019-04-20T02:35:14.164Z,48.30
2019-04-20T02:38:02.875Z,48.40
2019-04-20T02:40:39.670Z,48.30
2019-04-20T02:43:15.189Z,48.30
2019-04-20T02:46:04.017Z,48.40
2019-04-20T02:48:32.669Z,48.50
2019-04-20T02:54:15.186Z,48.60
2019-04-20T02:56:45.380Z,48.70
2019-04-20T02:59:31.621Z,48.70
2019-04-20T03:01:40.764Z,48.80
2019-04-20T03:04:40.231Z,48.80
2019-04-20T03:07:50.062Z,48.80
2019-04-20T03:10:26.622Z,48.80
2019-04-20T03:13:32.321Z,48.80
2019-04-20T03:16:45.543Z,48.90
2019-04-20T03:19:17.113Z,48.90
2019-04-20T03:22:05.176Z,48.80
2019-04-20T03:25:24.219Z,48.90
2019-04-20T03:28:14.106Z,49.00
2019-04-20T03:37:12.753Z,49.10
2019-04-20T03:39:57.078Z,49.00
2019-04-20T03:42:33.039Z,49.10
2019-04-20T03:45:23.146Z,49.00
2019-04-20T03:48:06.025Z,49.20
2019-04-20T03:50:46.577Z,49.20
2019-04-20T03:53:22.859Z,49.20
2019-04-20T03:56:11.804Z,49.30
2019-04-20T03:59:11.637Z,49.40
2019-04-20T04:02:37.785Z,49.40
2019-04-20T04:05:04.607Z,49.40
2019-04-20T04:07:43.771Z,49.50
2019-04-20T04:10:58.521Z,49.50
2019-04-20T04:13:17.105Z,49.70
2019-04-20T04:15:55.539Z,49.80
2019-04-20T04:18:29.689Z,49.80
2019-04-20T04:21:03.024Z,49.80
2019-04-20T04:23:48.972Z,49.90
2019-04-20T04:26:22.493Z,50.00
2019-04-20T04:28:56.333Z,50.00
2019-04-20T04:32:05.417Z,49.90
2019-04-20T04:34:59.085Z,50.10
2019-04-20T04:37:53.942Z,50.10
2019-04-20T04:40:58.704Z,50.00
2019-04-20T04:43:06.879Z,50.00
2019-04-20T04:45:19.546Z,50.10
2019-04-20T04:48:14.817Z,50.10
2019-04-20T04:50:49.586Z,50.20
2019-04-20T04:53:28.458Z,50.30
2019-04-20T04:55:56.515Z,50.40
2019-04-20T04:58:21.597Z,50.50
2019-04-20T05:01:03.922Z,50.60
2019-04-20T05:04:09.997Z,50.60
2019-04-20T05:06:58.221Z,50.70
2019-04-20T05:09:20.415Z,50.70
2019-04-20T05:11:59.712Z,50.70
2019-04-20T05:14:38.713Z,50.70
2019-04-20T05:17:48.325Z,50.80
2019-04-20T05:20:15.105Z,50.90
2019-04-20T05:22:55.901Z,50.90
2019-04-20T05:26:05.395Z,50.90
2019-04-20T05:28:27.815Z,50.90
2019-04-20T05:31:13.407Z,51.00
2019-04-20T05:34:08.580Z,51.10
2019-04-20T05:37:11.047Z,50.90
2019-04-20T05:39:32.629Z,51.20
2019-04-20T05:42:16.148Z,51.20
2019-04-20T05:44:45.584Z,51.40
2019-04-20T05:47:34.424Z,51.40
2019-04-20T05:50:21.947Z,51.60
2019-04-20T05:53:30.763Z,51.70
2019-04-20T05:56:03.815Z,51.80
2019-04-20T05:58:38.692Z,51.80
2019-04-20T06:01:52.798Z,51.80
2019-04-20T06:04:41.287Z,52.00
2019-04-20T06:07:06.035Z,52.10
2019-04-20T06:09:42.662Z,52.20
2019-04-20T06:12:25.417Z,52.40
2019-04-20T06:15:04.501Z,52.50
2019-04-20T06:18:01.000Z,52.60
2019-04-20T06:21:00.098Z,52.70
2019-04-20T06:26:43.707Z,53.00
2019-04-20T06:29:54.307Z,52.90
2019-04-20T06:33:31.080Z,53.00
2019-04-20T06:36:38.600Z,53.00
2019-04-20T06:39:18.704Z,52.80
2019-04-20T06:42:59.954Z,52.70
2019-04-20T06:45:35.780Z,52.90
2019-04-20T06:48:11.989Z,52.80
2019-04-20T06:51:25.376Z,52.80
2019-04-20T06:54:16.340Z,55.50
2019-04-20T06:57:07.292Z,53.80
2019-04-20T07:00:08.579Z,52.40
2019-04-20T07:03:47.122Z,52.30
2019-04-20T07:06:54.876Z,52.20
2019-04-20T07:09:47.328Z,52.00
2019-04-20T07:12:43.648Z,51.80
2019-04-20T07:15:39.917Z,51.60
2019-04-20T07:18:43.549Z,51.50
2019-04-20T07:22:02.298Z,51.40
2019-04-20T07:24:30.603Z,51.20
2019-04-20T07:27:00.628Z,51.00
2019-04-20T07:29:40.708Z,50.90
2019-04-20T07:32:09.759Z,50.80
2019-04-20T07:35:08.702Z,50.70
2019-04-20T07:38:08.367Z,50.50
2019-04-20T07:40:35.988Z,50.40
2019-04-20T07:43:31.980Z,50.30
2019-04-20T07:46:20.790Z,50.10
2019-04-20T07:49:12.879Z,50.10
2019-04-20T07:51:29.431Z,50.00
2019-04-20T07:54:35.699Z,49.80
2019-04-20T07:57:24.450Z,49.80
2019-04-20T08:00:04.824Z,49.60
2019-04-20T08:02:57.468Z,49.30
2019-04-20T08:05:54.110Z,49.20
2019-04-20T08:08:30.882Z,49.00
2019-04-20T08:11:56.643Z,49.00
2019-04-20T08:14:33.576Z,48.80
2019-04-20T08:20:17.307Z,48.60
2019-04-20T08:22:47.944Z,48.60
2019-04-20T08:26:00.499Z,49.00
2019-04-20T08:28:36.271Z,48.30
2019-04-20T08:31:50.420Z,48.00
2019-04-20T08:34:53.534Z,48.00
2019-04-20T08:38:05.740Z,47.70
2019-04-20T08:40:40.269Z,47.70
2019-04-20T08:46:38.324Z,47.30
2019-04-20T08:49:22.208Z,47.30
2019-04-20T08:52:43.957Z,47.10
2019-04-20T08:55:09.194Z,46.90
2019-04-20T08:57:51.499Z,46.90
2019-04-20T09:00:33.142Z,46.60
2019-04-20T09:03:28.118Z,46.60
2019-04-20T09:06:06.415Z,46.40
2019-04-20T09:09:22.415Z,46.20
2019-04-20T09:12:09.118Z,46.20
2019-04-20T09:14:46.671Z,46.00
2019-04-20T09:17:32.541Z,45.10
2019-04-20T09:20:31.904Z,45.70
2019-04-20T09:23:31.493Z,45.60
2019-04-20T09:26:24.773Z,45.30
2019-04-20T09:28:59.117Z,45.00
2019-04-20T09:32:09.611Z,44.90
2019-04-20T09:34:57.113Z,44.60
2019-04-20T09:38:14.463Z,44.50
2019-04-20T09:41:45.219Z,44.20
2019-04-20T09:43:52.542Z,44.00
2019-04-20T09:46:56.296Z,43.70
2019-04-20T09:50:00.849Z,43.40
2019-04-20T09:53:20.912Z,43.00
2019-04-20T09:55:59.490Z,42.60
2019-04-20T09:59:08.255Z,42.00
2019-04-20T10:01:45.230Z,41.50
2019-04-20T10:04:55.697Z,41.00
2019-04-20T10:07:48.391Z,40.50
2019-04-20T10:11:03.535Z,39.90
2019-04-20T10:14:06.155Z,39.50
2019-04-20T10:16:56.220Z,39.20
2019-04-20T10:20:14.653Z,38.70
2019-04-20T10:22:38.620Z,38.20
2019-04-20T10:25:50.894Z,38.10
2019-04-20T10:28:43.947Z,37.50
2019-04-20T10:31:24.551Z,37.10
2019-04-20T10:34:15.840Z,36.60
2019-04-20T10:37:24.460Z,35.90
2019-04-20T10:39:56.548Z,35.30
2019-04-20T10:42:48.124Z,34.80
2019-04-20T10:45:39.522Z,33.80
2019-04-20T10:48:52.567Z,33.10
2019-04-20T10:51:24.203Z,32.80
2019-04-20T10:53:56.093Z,32.50
2019-04-20T10:57:10.098Z,31.80
2019-04-20T10:59:50.293Z,31.40
2019-04-20T11:03:15.851Z,31.00
2019-04-20T11:06:12.368Z,30.30
2019-04-20T11:08:44.945Z,30.00
2019-04-20T11:12:04.211Z,29.60
2019-04-20T11:15:36.670Z,29.10
2019-04-20T11:18:07.376Z,28.70
2019-04-20T11:20:49.633Z,28.60
2019-04-20T11:23:20.810Z,28.10
2019-04-20T11:25:52.529Z,27.60
2019-04-20T11:29:18.197Z,27.20
2019-04-20T11:32:13.429Z,26.70
2019-04-20T11:35:13.773Z,26.60
2019-04-20T11:37:55.456Z,26.10
2019-04-20T11:40:28.845Z,25.70
2019-04-20T11:43:22.268Z,25.40
2019-04-20T11:45:56.797Z,25.10
2019-04-20T11:48:57.309Z,25.00
2019-04-20T11:52:19.680Z,24.70
2019-04-20T11:55:28.552Z,24.40
2019-04-20T11:58:38.668Z,24.20
2019-04-20T12:01:38.124Z,24.10
2019-04-20T12:04:40.711Z,23.90
2019-04-20T12:07:08.988Z,23.30
2019-04-20T12:10:13.851Z,23.10
2019-04-20T12:12:59.651Z,22.90
2019-04-20T12:15:45.425Z,22.70
2019-04-20T12:19:10.583Z,22.50
2019-04-20T12:22:00.004Z,22.10
2019-04-20T12:24:34.035Z,22.00
2019-04-20T12:28:21.981Z,21.70
2019-04-20T12:31:19.635Z,21.40
2019-04-20T12:33:52.573Z,21.30
2019-04-20T12:36:23.993Z,21.00
2019-04-20T12:39:35.332Z,20.80
2019-04-20T12:42:17.470Z,20.70
2019-04-20T12:45:05.935Z,20.80
2019-04-20T12:48:23.802Z,20.60
2019-04-20T12:51:36.669Z,20.30
2019-04-20T12:54:06.621Z,20.20
2019-04-20T12:56:56.324Z,19.80
2019-04-20T13:00:03.472Z,19.30
2019-04-20T13:02:51.473Z,18.90
2019-04-20T13:05:22.741Z,18.70
2019-04-20T13:08:33.297Z,18.20
2019-04-20T13:11:34.706Z,17.90
2019-04-20T13:14:52.776Z,17.20
2019-04-20T13:18:23.332Z,16.70
2019-04-20T13:21:19.003Z,16.30
2019-04-20T13:25:07.513Z,15.80
2019-04-20T13:27:58.934Z,15.00
2019-04-20T13:30:50.093Z,14.70
2019-04-20T13:33:51.612Z,14.20
2019-04-20T13:36:40.349Z,13.90
2019-04-20T13:39:36.163Z,13.40
2019-04-20T13:42:20.704Z,13.10
2019-04-20T13:45:24.690Z,12.80
2019-04-20T13:48:04.196Z,12.60
2019-04-20T13:51:02.563Z,12.50
2019-04-20T13:53:33.857Z,12.60
2019-04-20T13:56:19.803Z,12.40
2019-04-20T13:59:24.129Z,12.30
2019-04-20T14:02:33.148Z,12.20
2019-04-20T14:05:22.903Z,12.30
2019-04-20T14:07:53.571Z,12.40
2019-04-20T14:10:53.457Z,12.50
2019-04-20T14:13:54.722Z,12.50
2019-04-20T14:16:43.146Z,12.80
2019-04-20T14:19:38.771Z,12.60
2019-04-20T14:22:29.198Z,12.50
2019-04-20T14:25:05.044Z,12.70
2019-04-20T14:27:55.344Z,12.70
2019-04-20T14:31:05.802Z,12.70
2019-04-20T14:33:55.010Z,12.60
2019-04-20T14:36:27.169Z,12.60
2019-04-20T14:39:06.554Z,12.40
2019-04-20T14:41:40.387Z,12.30
2019-04-20T14:44:32.016Z,12.40
2019-04-20T14:47:03.659Z,12.50
2019-04-20T14:49:36.954Z,12.60
2019-04-20T14:52:09.535Z,12.50
2019-04-20T14:54:41.377Z,12.40
2019-04-20T14:57:13.631Z,12.30
2019-04-20T14:59:52.009Z,12.30
2019-04-20T15:02:25.844Z,12.20
2019-04-20T15:04:57.015Z,12.10
2019-04-20T15:07:28.844Z,12.00
2019-04-20T15:10:00.780Z,11.70
2019-04-20T15:12:44.556Z,11.60
2019-04-20T15:15:04.915Z,11.50
2019-04-20T15:17:43.827Z,11.20
2019-04-20T15:20:27.678Z,10.90
2019-04-20T15:23:05.480Z,10.80
2019-04-20T15:25:37.914Z,10.70
2019-04-20T15:28:08.567Z,10.70
2019-04-20T15:30:40.393Z,10.60
2019-04-20T15:33:14.854Z,10.40
2019-04-20T15:35:46.122Z,10.30
2019-04-20T15:38:18.228Z,10.20
2019-04-20T15:40:49.074Z,10.10
2019-04-20T15:43:27.856Z,10.10
2019-04-20T15:45:59.254Z,10.00
2019-04-20T15:48:32.189Z,9.90
2019-04-20T15:51:07.934Z,9.80
2019-04-20T15:53:41.751Z,9.70
2019-04-20T15:56:13.183Z,10.20
2019-04-20T15:58:46.148Z,9.60
2019-04-20T16:01:20.645Z,9.50
2019-04-20T16:03:59.329Z,9.50
2019-04-20T16:06:31.553Z,9.50
2019-04-20T16:09:04.494Z,9.40
2019-04-20T16:11:35.180Z,9.30
2019-04-20T16:14:07.235Z,9.50
2019-04-20T16:16:37.885Z,9.60
2019-04-20T16:19:13.677Z,9.60
2019-04-20T16:21:41.664Z,9.50
2019-04-20T16:24:15.302Z,9.40
2019-04-20T16:27:17.929Z,9.90
2019-04-20T16:29:49.512Z,10.00
2019-04-20T16:32:24.488Z,10.40
2019-04-20T16:38:43.488Z,10.90
2019-04-20T16:41:14.656Z,11.20
2019-04-20T16:43:46.746Z,11.50
2019-04-20T16:46:20.490Z,11.80
2019-04-20T16:48:57.004Z,12.00
2019-04-20T16:51:32.671Z,12.20
2019-04-20T16:54:03.880Z,12.40
2019-04-20T16:57:33.991Z,12.70
2019-04-20T17:00:05.466Z,12.90
2019-04-20T17:02:36.330Z,13.10
2019-04-20T17:05:07.616Z,13.40
2019-04-20T17:07:42.693Z,13.80
2019-04-20T17:10:17.683Z,14.00
2019-04-20T17:12:48.466Z,14.30
2019-04-20T17:15:21.483Z,14.40
2019-04-20T17:17:53.815Z,14.70
2019-04-20T17:20:27.035Z,14.80
2019-04-20T17:22:58.369Z,15.10
2019-04-20T17:25:30.061Z,15.30
2019-04-20T17:28:33.423Z,15.50
2019-04-20T17:31:20.465Z,15.70
2019-04-20T17:34:04.990Z,15.70
2019-04-20T17:36:32.879Z,15.90
2019-04-20T17:39:11.784Z,16.10
2019-04-20T17:41:56.275Z,16.30
2019-04-20T17:44:28.744Z,16.30
2019-04-20T17:46:59.021Z,16.60
2019-04-20T17:49:36.851Z,16.80
2019-04-20T17:52:18.987Z,17.00
2019-04-20T17:54:35.615Z,17.10
2019-04-20T17:57:09.119Z,17.30
2019-04-20T17:59:47.121Z,17.50
2019-04-20T18:02:49.187Z,17.90
2019-04-20T18:05:44.951Z,18.00
2019-04-20T18:08:15.370Z,18.20
2019-04-20T18:10:44.403Z,18.50
2019-04-20T18:13:09.057Z,18.80
2019-04-20T18:15:51.801Z,19.20
2019-04-20T18:18:40.879Z,19.60
2019-04-20T18:21:04.741Z,20.00
2019-04-20T18:23:41.045Z,20.30
2019-04-20T18:26:30.202Z,20.70
2019-04-20T18:29:05.187Z,21.00
2019-04-20T18:31:31.733Z,21.30
2019-04-20T18:34:17.953Z,21.50
2019-04-20T18:36:48.263Z,21.70
2019-04-20T18:39:31.833Z,22.00
2019-04-20T18:42:03.120Z,22.30
2019-04-20T18:44:55.562Z,22.60
2019-04-20T18:47:31.800Z,22.90
2019-04-20T18:49:50.452Z,23.30
2019-04-20T18:52:16.051Z,23.50
2019-04-20T18:54:49.701Z,23.70
2019-04-20T18:57:24.886Z,23.90
2019-04-20T18:59:54.802Z,24.20
2019-04-20T19:02:30.829Z,24.40
2019-04-20T19:05:05.554Z,24.80
2019-04-20T19:07:51.522Z,25.20
2019-04-20T19:10:23.638Z,25.40
2019-04-20T19:13:01.019Z,25.60
2019-04-20T19:15:53.360Z,25.90
2019-04-20T19:18:36.734Z,26.20
2019-04-20T19:20:57.067Z,26.40
2019-04-20T19:23:29.312Z,26.70
2019-04-20T19:26:09.650Z,26.80
2019-04-20T19:28:45.145Z,27.00
2019-04-20T19:31:25.009Z,27.30
2019-04-20T19:34:03.424Z,27.40
2019-04-20T19:36:28.720Z,27.70
2019-04-20T19:39:08.226Z,27.80
2019-04-20T19:41:38.297Z,27.90
2019-04-20T19:44:10.028Z,28.10
2019-04-20T19:46:55.079Z,28.30
2019-04-20T19:49:25.068Z,28.40
2019-04-20T19:52:27.221Z,28.60
2019-04-20T19:54:46.748Z,28.70
2019-04-20T19:57:28.635Z,28.90
2019-04-20T19:59:44.059Z,29.00
2019-04-20T20:02:18.043Z,29.10
2019-04-20T20:05:02.723Z,29.30
2019-04-20T20:07:44.260Z,29.50
2019-04-20T20:10:20.845Z,29.60
2019-04-20T20:12:54.822Z,29.70
2019-04-20T20:15:29.603Z,29.90
2019-04-20T20:18:23.130Z,30.00
2019-04-20T20:20:57.785Z,30.20
2019-04-20T20:23:14.275Z,30.30
2019-04-20T20:25:49.221Z,30.50
2019-04-20T20:28:31.284Z,30.70
2019-04-20T20:31:01.723Z,30.80
2019-04-20T20:33:43.620Z,31.00
2019-04-20T20:36:11.366Z,31.00
2019-04-20T20:38:40.852Z,31.10
2019-04-20T20:41:25.231Z,31.20
2019-04-20T20:44:06.902Z,31.40
2019-04-20T20:46:43.928Z,31.60
2019-04-20T20:49:21.176Z,33.10
2019-04-20T20:51:54.324Z,32.60
2019-04-20T20:54:25.812Z,32.70
2019-04-20T20:56:52.712Z,32.90
2019-04-20T20:59:30.268Z,33.10
2019-04-20T21:01:54.082Z,33.20
2019-04-20T21:04:21.681Z,33.50
2019-04-20T21:06:52.829Z,33.50
2019-04-20T21:09:25.409Z,34.00
2019-04-20T21:12:01.796Z,33.90
2019-04-20T21:14:31.522Z,34.10
2019-04-20T21:17:12.301Z,34.20
2019-04-20T21:19:56.280Z,34.40
2019-04-20T21:22:17.060Z,34.50
2019-04-20T21:24:48.457Z,34.70
2019-04-20T21:27:21.993Z,34.90
2019-04-20T21:30:18.294Z,35.00
2019-04-20T21:32:50.710Z,35.10
2019-04-20T21:35:19.947Z,35.10
2019-04-20T21:37:58.254Z,35.40
2019-04-20T21:40:34.015Z,35.60
2019-04-20T21:43:02.372Z,35.80
2019-04-20T21:45:34.273Z,35.90
2019-04-20T21:48:09.839Z,36.20
2019-04-20T21:50:57.476Z,36.30
2019-04-20T21:53:15.903Z,36.40
2019-04-20T21:55:41.771Z,36.40
2019-04-20T21:58:14.040Z,36.70
2019-04-20T22:01:12.479Z,36.70
2019-04-20T22:03:34.205Z,36.60
2019-04-20T22:06:08.895Z,36.60
2019-04-20T22:08:49.337Z,36.70
2019-04-20T22:11:15.695Z,36.90
2019-04-20T22:13:49.391Z,36.90
2019-04-20T22:16:20.791Z,37.00
2019-04-20T22:19:09.127Z,37.00
2019-04-20T22:21:37.975Z,37.10
2019-04-20T22:24:10.548Z,38.10
2019-04-20T22:26:39.440Z,37.40
2019-04-20T22:29:02.460Z,37.50
2019-04-20T22:31:34.027Z,37.60
2019-04-20T22:34:10.395Z,37.70
2019-04-20T22:36:43.083Z,37.90
2019-04-20T22:39:32.213Z,38.00
2019-04-20T22:42:03.152Z,38.10
2019-04-20T22:44:32.454Z,38.10
2019-04-20T22:47:05.369Z,38.10
2019-04-20T22:49:49.752Z,38.30
2019-04-20T22:52:26.510Z,38.50
2019-04-20T22:54:54.760Z,38.60
2019-04-20T22:57:29.494Z,38.70
2019-04-20T22:59:55.501Z,38.80
2019-04-20T23:02:22.556Z,38.80
2019-04-20T23:04:52.742Z,39.00
2019-04-20T23:07:23.547Z,39.00
2019-04-20T23:09:57.835Z,39.20
2019-04-20T23:12:30.350Z,39.20
2019-04-20T23:15:00.946Z,39.50
2019-04-20T23:17:38.169Z,39.40
2019-04-20T23:20:13.298Z,39.50
2019-04-20T23:26:30.879Z,39.80
2019-04-20T23:28:59.595Z,39.30
2019-04-20T23:31:30.355Z,40.10
2019-04-20T23:34:09.198Z,40.40
2019-04-20T23:36:39.078Z,40.00
2019-04-20T23:39:08.723Z,40.20
2019-04-20T23:41:43.548Z,40.20
2019-04-20T23:44:29.532Z,40.40
2019-04-20T23:47:11.618Z,40.50
2019-04-20T23:49:55.693Z,40.60
2019-04-20T23:52:35.581Z,40.70
2019-04-20T23:54:53.605Z,40.80
2019-04-20T23:57:19.728Z,40.80
2019-04-20T23:59:52.000Z,40.90
